^^
Station Historical Data
Daily Summary for May 19, 2017 Units:  Metric    English   Both
« Previous Day
Next Day »
Daily Weekly Monthly Yearly Custom
  High: Low: Average:
Temperature: 6.1 °C 1.2 °C 3.6 °C
Dew Point: 2.1 °C -0.1 °C 0.7 °C
Humidity: 92% 69% 82%
Wind Speed: 33.3km/h 0km/h 11.4km/h
Wind Gust: 33.3km/h - -
Wind- - WSW
Pressure: 1020.2 hPa 1016.8 hPa -
Precipitation: 30.99 mm    
Historical Graphs
 
 
Tabular Data for May 19, 2017
Time Temperature Dew Point Pressure Wind Wind Speed Wind Gust Humidity Rainfall Rate (Hourly) solar Conditions
00:00 1.7 °C 0.3 °C 1018.2 hPa NW 9.3 km/h 9.3 km/h 91% 1.27 mm WeatherDisplay:10.37 W/m2 RA
00:05 1.7 °C 0.4 °C 1018.5 hPa NNE 9.3 km/h 9.3 km/h 91% 1.27 mm WeatherDisplay:10.37 W/m2 RA
00:10 1.7 °C 0.4 °C 1018.5 hPa NNW 9.3 km/h 9.3 km/h 91% 1.02 mm WeatherDisplay:10.37 W/m2
00:15 1.8 °C 0.4 °C 1018.5 hPa WSW 9.3 km/h 9.3 km/h 91% 1.27 mm WeatherDisplay:10.37 W/m2 RA
00:20 1.8 °C 0.4 °C 1018.5 hPa NNE 11.1 km/h 11.1 km/h 91% 1.02 mm WeatherDisplay:10.37 W/m2 RA
00:25 1.8 °C 0.4 °C 1018.5 hPa NNW 5.6 km/h 5.6 km/h 91% 1.02 mm WeatherDisplay:10.37 W/m2 CLR
00:30 1.8 °C 0.4 °C 1018.5 hPa NNW 7.4 km/h 7.4 km/h 91% 1.27 mm WeatherDisplay:10.37 W/m2 RA
00:35 1.7 °C 0.4 °C 1018.5 hPa NNW 9.3 km/h 9.3 km/h 91% 1.02 mm WeatherDisplay:10.37 W/m2 RA
00:40 1.7 °C 0.4 °C 1018.5 hPa NNW 7.4 km/h 7.4 km/h 91% 1.27 mm WeatherDisplay:10.37 W/m2 RA
00:45 1.7 °C 0.4 °C 1018.2 hPa WNW 9.3 km/h 9.3 km/h 91% 1.27 mm WeatherDisplay:10.37 W/m2 RA
00:50 1.7 °C 0.4 °C 1018.2 hPa NNE 9.3 km/h 9.3 km/h 91% 1.27 mm WeatherDisplay:10.37 W/m2 RA
00:55 1.7 °C 0.3 °C 1018.2 hPa North 11.3 km/h 11.3 km/h 91% 1.52 mm WeatherDisplay:10.37 W/m2 RA
01:00 1.7 °C 0.3 °C 1018.2 hPa North 14.8 km/h 14.8 km/h 91% 1.27 mm WeatherDisplay:10.37 W/m2 RA
01:05 1.6 °C 0.3 °C 1018.5 hPa NNE 9.3 km/h 9.3 km/h 91% 1.52 mm WeatherDisplay:10.37 W/m2 RA
01:10 1.6 °C 0.3 °C 1018.5 hPa West 11.1 km/h 11.1 km/h 91% 1.52 mm WeatherDisplay:10.37 W/m2 RA
01:15 1.7 °C 0.5 °C 1018.5 hPa North 9.3 km/h 9.3 km/h 92% 1.52 mm WeatherDisplay:10.37 W/m2 RA
01:20 1.7 °C 0.5 °C 1018.5 hPa NNW 9.3 km/h 9.3 km/h 92% 1.52 mm WeatherDisplay:10.37 W/m2 RA
01:25 1.7 °C 0.6 °C 1018.2 hPa North 9.3 km/h 9.3 km/h 92% 1.27 mm WeatherDisplay:10.37 W/m2 CLR
01:30 1.7 °C 0.4 °C 1018.2 hPa NNE 11.1 km/h 11.1 km/h 91% 1.52 mm WeatherDisplay:10.37 W/m2 RA
01:35 1.7 °C 0.3 °C 1018.2 hPa SW 11.1 km/h 11.1 km/h 91% 1.52 mm WeatherDisplay:10.37 W/m2 RA
01:40 1.7 °C 0.3 °C 1018.2 hPa North 9.7 km/h 9.7 km/h 91% 1.52 mm WeatherDisplay:10.37 W/m2 RA
01:45 1.7 °C 0.3 °C 1018.2 hPa NNW 7.4 km/h 7.4 km/h 91% 1.52 mm WeatherDisplay:10.37 W/m2 RA
01:50 1.7 °C 0.5 °C 1018.2 hPa North 18.5 km/h 18.5 km/h 92% 1.27 mm WeatherDisplay:10.37 W/m2 CLR
01:55 1.7 °C 0.3 °C 1018.2 hPa NNW 11.1 km/h 11.1 km/h 91% 1.27 mm WeatherDisplay:10.37 W/m2 RA
02:00 1.6 °C 0.3 °C 1018.2 hPa NNW 14.8 km/h 14.8 km/h 91% 1.52 mm WeatherDisplay:10.37 W/m2 RA
02:05 1.6 °C 0.3 °C 1017.8 hPa North 9.3 km/h 9.3 km/h 91% 1.27 mm WeatherDisplay:10.37 W/m2 RA
02:10 1.6 °C 0.2 °C 1017.8 hPa North 14.8 km/h 14.8 km/h 91% 1.27 mm WeatherDisplay:10.37 W/m2
02:16 1.5 °C 0.2 °C 1017.8 hPa NNE 7.4 km/h 7.4 km/h 91% 1.27 mm WeatherDisplay:10.37 W/m2 RA
02:21 1.4 °C 0.1 °C 1017.5 hPa North 9.3 km/h 9.3 km/h 91% 1.27 mm WeatherDisplay:10.37 W/m2 RA
02:26 1.4 °C 0.1 °C 1017.5 hPa NNW 5.6 km/h 5.6 km/h 91% 1.52 mm WeatherDisplay:10.37 W/m2 RA
02:31 1.4 °C 0.1 °C 1017.5 hPa NW 11.1 km/h 11.1 km/h 91% 1.27 mm WeatherDisplay:10.37 W/m2 RA
02:36 1.5 °C 0.3 °C 1017.5 hPa NNW 13 km/h 13 km/h 92% 1.52 mm WeatherDisplay:10.37 W/m2 RA
02:41 1.5 °C 0.3 °C 1017.5 hPa NNE 9.3 km/h 9.3 km/h 92% 1.27 mm WeatherDisplay:10.37 W/m2 RA
02:46 1.6 °C 0.4 °C 1017.2 hPa NNW 9.7 km/h 9.7 km/h 92% 1.27 mm WeatherDisplay:10.37 W/m2
02:51 1.6 °C 0.4 °C 1017.2 hPa NNW 18.5 km/h 18.5 km/h 92% 1.52 mm WeatherDisplay:10.37 W/m2 RA
02:56 1.6 °C 0.4 °C 1017.5 hPa NNE 16.7 km/h 16.7 km/h 92% 1.27 mm WeatherDisplay:10.37 W/m2 RA
03:01 1.6 °C 0.4 °C 1017.5 hPa North 9.3 km/h 9.3 km/h 92% 1.02 mm WeatherDisplay:10.37 W/m2 CLR
03:06 1.6 °C 0.4 °C 1017.2 hPa WNW 7.4 km/h 7.4 km/h 92% 1.27 mm WeatherDisplay:10.37 W/m2 RA
03:11 1.7 °C 0.5 °C 1017.2 hPa NNE 5.6 km/h 5.6 km/h 92% 1.27 mm WeatherDisplay:10.37 W/m2 RA
03:16 1.7 °C 0.6 °C 1017.2 hPa North 5.6 km/h 5.6 km/h 92% 1.02 mm WeatherDisplay:10.37 W/m2 CLR
03:21 1.7 °C 0.6 °C 1017.2 hPa NNW 14.8 km/h 14.8 km/h 92% 1.27 mm WeatherDisplay:10.37 W/m2 RA
03:26 1.8 °C 0.6 °C 1017.2 hPa WNW 6.4 km/h 6.4 km/h 92% 1.02 mm WeatherDisplay:10.37 W/m2 RA
03:31 1.7 °C 0.4 °C 1017.2 hPa NNW 11.1 km/h 11.1 km/h 91% 1.27 mm WeatherDisplay:10.37 W/m2 RA
03:36 1.7 °C 0.4 °C 1016.8 hPa North 9.3 km/h 9.3 km/h 91% 1.27 mm WeatherDisplay:10.37 W/m2 RA
03:41 1.7 °C 0.3 °C 1017.2 hPa NNW 5.6 km/h 5.6 km/h 91% 1.27 mm WeatherDisplay:10.37 W/m2 RA
03:46 1.6 °C 0.3 °C 1016.8 hPa WNW 11.3 km/h 11.3 km/h 91% 1.52 mm WeatherDisplay:10.37 W/m2 RA
03:51 1.6 °C 0.2 °C 1017.2 hPa North 11.1 km/h 11.1 km/h 91% 1.27 mm WeatherDisplay:10.37 W/m2 RA
03:56 1.4 °C 0.1 °C 1017.2 hPa NNW 9.3 km/h 9.3 km/h 91% 1.52 mm WeatherDisplay:10.37 W/m2 RA
04:01 1.4 °C 0.1 °C 1017.2 hPa North 11.1 km/h 11.1 km/h 91% 1.52 mm WeatherDisplay:10.37 W/m2 RA
04:06 1.4 °C 0.1 °C 1017.8 hPa NNW 8 km/h 8 km/h 91% 1.27 mm WeatherDisplay:10.37 W/m2
04:11 1.3 °C 0 °C 1017.8 hPa NNE 9.7 km/h 9.7 km/h 91% 1.52 mm WeatherDisplay:10.37 W/m2 RA
04:16 1.3 °C 0.2 °C 1017.8 hPa NNE 1.9 km/h   92% 1.52 mm WeatherDisplay:10.37 W/m2 RA
04:21 1.3 °C 0.2 °C 1017.8 hPa North 11.1 km/h 11.1 km/h 92% 1.52 mm WeatherDisplay:10.37 W/m2 RA
04:26 1.3 °C 0.2 °C 1017.8 hPa NNW 7.4 km/h 7.4 km/h 92% 1.52 mm WeatherDisplay:10.37 W/m2 RA
04:31 1.3 °C 0.2 °C 1017.8 hPa North 8 km/h 8 km/h 92% 1.27 mm WeatherDisplay:10.37 W/m2 CLR
04:36 1.3 °C 0.2 °C 1017.8 hPa North 5.6 km/h 5.6 km/h 92% 1.27 mm WeatherDisplay:10.37 W/m2 RA
04:41 1.3 °C 0.2 °C 1017.8 hPa North 5.6 km/h 5.6 km/h 92% 1.27 mm WeatherDisplay:10.37 W/m2 RA
04:46 1.3 °C 0.2 °C 1017.8 hPa North 5.6 km/h 5.6 km/h 92% 1.02 mm WeatherDisplay:10.37 W/m2
04:51 1.4 °C 0.3 °C 1017.8 hPa West 18.5 km/h 18.5 km/h 92% 1.27 mm WeatherDisplay:10.37 W/m2 RA
04:56 1.5 °C 0.3 °C 1017.8 hPa North 7.4 km/h 7.4 km/h 92% 1.02 mm WeatherDisplay:10.37 W/m2 RA
05:01 1.5 °C 0.3 °C 1017.8 hPa West 6.4 km/h 6.4 km/h 92% 1.02 mm WeatherDisplay:10.37 W/m2
05:06 1.5 °C 0.3 °C 1017.8 hPa West 1.9 km/h 1.9 km/h 92% 1.02 mm WeatherDisplay:10.37 W/m2 CLR
05:11 1.4 °C 0.2 °C 1017.8 hPa North 5.6 km/h   92% 1.02 mm WeatherDisplay:10.37 W/m2 RA
05:16 1.3 °C 0 °C 1018.2 hPa WNW 6.4 km/h 6.4 km/h 91% 1.02 mm WeatherDisplay:10.37 W/m2 RA
05:21 1.3 °C 0.2 °C 1018.2 hPa NW 3.7 km/h 3.7 km/h 92% 0.76 mm WeatherDisplay:10.37 W/m2 CLR
05:26 1.3 °C -0.1 °C 1018.2 hPa NNE 5.6 km/h 5.6 km/h 91% 0.76 mm WeatherDisplay:10.37 W/m2 CLR
05:31 1.3 °C 0.1 °C 1018.2 hPa NNW 7.4 km/h   92% 0.76 mm WeatherDisplay:10.37 W/m2 CLR
05:36 1.2 °C 0.1 °C 1018.2 hPa WNW 5.6 km/h 5.6 km/h 92% 0.51 mm WeatherDisplay:10.37 W/m2 CLR
05:41 1.2 °C 0.1 °C 1018.2 hPa NNW 5.6 km/h 5.6 km/h 92% 0.76 mm WeatherDisplay:10.37 W/m2 RA
05:46 1.3 °C 0.1 °C 1018.2 hPa Calm     92% 0.76 mm WeatherDisplay:10.37 W/m2 RA
05:51 1.3 °C 0.1 °C 1018.2 hPa Calm     92% 0.51 mm WeatherDisplay:10.37 W/m2
05:56 1.3 °C 0.1 °C 1018.2 hPa NW 5.6 km/h 5.6 km/h 92% 0.51 mm WeatherDisplay:10.37 W/m2 CLR
06:01 1.3 °C 0.1 °C 1018.5 hPa NW 5.6 km/h 5.6 km/h 92% 0.76 mm WeatherDisplay:10.37 W/m2 RA
06:06 1.3 °C 0.2 °C 1018.5 hPa NW 3.7 km/h 3.7 km/h 92% 0.76 mm WeatherDisplay:10.37 W/m2 RA
06:11 1.3 °C 0.2 °C 1018.5 hPa NW 3.2 km/h 3.2 km/h 92% 0.51 mm WeatherDisplay:10.37 W/m2
06:16 1.3 °C 0.2 °C 1018.5 hPa NNW 3.7 km/h 3.7 km/h 92% 0.51 mm WeatherDisplay:10.37 W/m2 CLR
06:21 1.3 °C 0.1 °C 1018.5 hPa WNW 5.6 km/h 5.6 km/h 92% 0.51 mm WeatherDisplay:10.37 W/m2 CLR
06:26 1.3 °C 0.1 °C 1018.5 hPa NW 1.9 km/h 1.9 km/h 92% 0.51 mm WeatherDisplay:10.37 W/m2 CLR
06:31 1.2 °C 0.1 °C 1018.8 hPa NW 5.6 km/h 5.6 km/h 92% 0.51 mm WeatherDisplay:10.37 W/m2 CLR
06:36 1.3 °C 0.1 °C 1018.8 hPa North 9.3 km/h 9.3 km/h 92% 0.76 mm WeatherDisplay:10.37 W/m2 RA
06:41 1.3 °C 0.2 °C 1018.8 hPa WNW 4.8 km/h 4.8 km/h 92% 0.51 mm WeatherDisplay:10.37 W/m2 RA
06:46 1.3 °C 0.2 °C 1018.8 hPa Calm   0.8 km/h 92% 0.51 mm WeatherDisplay:10.37 W/m2
06:51 1.3 °C 0.2 °C 1018.8 hPa North 6.4 km/h 6.4 km/h 92% 0.76 mm WeatherDisplay:10.37 W/m2 RA
06:56 1.4 °C 0.2 °C 1018.8 hPa WNW 5.6 km/h 5.6 km/h 92% 0.76 mm WeatherDisplay:10.37 W/m2 RA
07:01 1.5 °C 0.3 °C 1018.5 hPa NW 3.7 km/h 3.7 km/h 92% 0.76 mm WeatherDisplay:10.37 W/m2 RA
07:07 1.6 °C 0.4 °C 1018.5 hPa NW 5.6 km/h 5.6 km/h 92% 1.02 mm WeatherDisplay:10.37 W/m2 RA
07:12 1.7 °C 0.5 °C 1018.8 hPa WSW 1.6 km/h   92% 1.02 mm WeatherDisplay:10.37 W/m2 RA
07:17 1.7 °C 0.6 °C 1018.8 hPa Calm     92% 1.27 mm WeatherDisplay:10.37 W/m2 RA
07:22 1.8 °C 0.6 °C 1018.8 hPa West 7.4 km/h 7.4 km/h 92% 1.52 mm WeatherDisplay:10.37 W/m2 RA
07:27 1.7 °C 0.6 °C 1018.8 hPa NW 3.7 km/h 3.7 km/h 92% 1.52 mm WeatherDisplay:10.37 W/m2 RA
07:32 1.8 °C 0.6 °C 1018.8 hPa WNW 3.7 km/h 3.7 km/h 92% 1.78 mm WeatherDisplay:10.37 W/m2 RA
07:37 1.8 °C 0.6 °C 1018.8 hPa NNE 5.6 km/h 5.6 km/h 92% 1.78 mm WeatherDisplay:10.37 W/m2 RA
07:42 1.8 °C 0.6 °C 1019.2 hPa Calm     92% 1.78 mm WeatherDisplay:10.37 W/m2 RA
07:46 1.8 °C 0.6 °C 1019.2 hPa WNW 5.6 km/h 5.6 km/h 92% 1.78 mm WeatherDisplay:10.37 W/m2 CLR
07:52 1.8 °C 0.6 °C 1019.2 hPa Calm     92% 1.78 mm WeatherDisplay:10.37 W/m2 RA
07:57 1.8 °C 0.6 °C 1019.5 hPa NNW 1.9 km/h   92% 2.03 mm WeatherDisplay:10.37 W/m2 RA
08:02 1.8 °C 0.6 °C 1019.9 hPa West 1.6 km/h   92% 1.78 mm WeatherDisplay:10.37 W/m2 RA
08:07 1.8 °C 0.7 °C 1019.9 hPa NW 1.9 km/h 1.9 km/h 92% 1.52 mm WeatherDisplay:10.37 W/m2
08:12 1.9 °C 0.7 °C 1019.9 hPa WSW 3.7 km/h 3.7 km/h 92% 1.78 mm WeatherDisplay:10.37 W/m2 RA
08:17 1.9 °C 0.8 °C 1019.5 hPa West 3.7 km/h 3.7 km/h 92% 1.78 mm WeatherDisplay:10.37 W/m2 RA
08:22 2 °C 0.8 °C 1019.5 hPa WNW 1.9 km/h   92% 1.52 mm WeatherDisplay:10.37 W/m2 RA
08:27 2 °C 0.8 °C 1019.5 hPa WNW 3.7 km/h 3.7 km/h 92% 1.78 mm WeatherDisplay:10.37 W/m2 RA
08:32 2.1 °C 0.9 °C 1019.5 hPa NW 5.6 km/h 5.6 km/h 92% 1.78 mm WeatherDisplay:10.37 W/m2 RA
08:37 2.1 °C 0.9 °C 1019.5 hPa West 3.7 km/h 3.7 km/h 92% 1.78 mm WeatherDisplay:10.37 W/m2 RA
08:42 2.2 °C 1.1 °C 1019.9 hPa Calm     92% 2.03 mm WeatherDisplay:10.37 W/m2 RA
08:47 2.3 °C 1.1 °C 1019.9 hPa WNW 7.4 km/h 7.4 km/h 92% 2.03 mm WeatherDisplay:10.37 W/m2 RA
08:52 2.3 °C 1 °C 1019.9 hPa NNW 7.4 km/h 7.4 km/h 91% 2.03 mm WeatherDisplay:10.37 W/m2 RA
08:57 2.3 °C 1 °C 1019.9 hPa NW 9.3 km/h 9.3 km/h 91% 2.03 mm WeatherDisplay:10.37 W/m2 RA
09:02 2.3 °C 1 °C 1019.9 hPa NNW 11.1 km/h 11.1 km/h 91% 2.29 mm WeatherDisplay:10.37 W/m2 RA
09:07 2.3 °C 1 °C 1019.9 hPa NNW 11.1 km/h 11.1 km/h 91% 2.54 mm WeatherDisplay:10.37 W/m2 RA
09:12 2.4 °C 1.1 °C 1019.9 hPa NNW 5.6 km/h 5.6 km/h 91% 2.79 mm WeatherDisplay:10.37 W/m2 RA
09:17 2.5 °C 1 °C 1019.9 hPa NNW 8 km/h 8 km/h 90% 2.79 mm WeatherDisplay:10.37 W/m2 RA
09:22 2.6 °C 1.1 °C 1019.9 hPa NNW 9.3 km/h 9.3 km/h 90% 3.05 mm WeatherDisplay:10.37 W/m2 RA
09:27 2.7 °C 1.2 °C 1019.9 hPa North 11.3 km/h 11.3 km/h 90% 3.3 mm WeatherDisplay:10.37 W/m2 RA
09:32 2.8 °C 1.3 °C 1019.9 hPa WNW 13 km/h 13 km/h 90% 3.3 mm WeatherDisplay:10.37 W/m2 RA
09:37 2.7 °C 1.1 °C 1019.9 hPa NNE 9.7 km/h 9.7 km/h 89% 3.3 mm WeatherDisplay:10.37 W/m2 RA
09:42 2.7 °C 1.2 °C 1019.9 hPa NNW 9.3 km/h 9.3 km/h 90% 3.56 mm WeatherDisplay:10.37 W/m2 RA
09:47 2.7 °C 1.1 °C 1019.9 hPa NNE 14.8 km/h 14.8 km/h 89% 3.81 mm WeatherDisplay:10.37 W/m2 RA
09:52 2.8 °C 1.3 °C 1019.9 hPa NNW 9.3 km/h 9.3 km/h 90% 3.81 mm WeatherDisplay:10.37 W/m2 RA
09:57 2.9 °C 1.3 °C 1019.9 hPa North 11.1 km/h 11.1 km/h 89% 3.81 mm WeatherDisplay:10.37 W/m2 RA
10:02 3 °C 1.4 °C 1019.5 hPa NNE 11.1 km/h 11.1 km/h 89% 3.81 mm WeatherDisplay:10.37 W/m2 RA
10:07 3.1 °C 1.4 °C 1019.5 hPa North 18.5 km/h 18.5 km/h 89% 3.81 mm WeatherDisplay:10.37 W/m2 RA
10:12 3.1 °C 1.3 °C 1019.5 hPa North 14.8 km/h 14.8 km/h 88% 3.56 mm WeatherDisplay:10.37 W/m2 RA
10:17 3.2 °C 1.4 °C 1019.5 hPa North 16.7 km/h 16.7 km/h 88% 3.81 mm WeatherDisplay:10.37 W/m2 RA
10:19 3.3 °C 1.5 °C 1019.5 hPa North 14.8 km/h 14.8 km/h 88% 3.81 mm WeatherDisplay:10.37 W/m2 RA
10:24 3.5 °C 1.7 °C 1019.5 hPa NNW 16.7 km/h 16.7 km/h 88% 3.81 mm WeatherDisplay:10.37 W/m2 RA
10:29 3.7 °C 1.9 °C 1019.2 hPa NW 9.3 km/h 9.3 km/h 88% 3.81 mm WeatherDisplay:10.37 W/m2 RA
10:30 3.7 °C 1.9 °C 1019.2 hPa WNW 13 km/h 13 km/h 88% 3.81 mm WeatherDisplay:10.37 W/m2 RA
10:35 3.8 °C 1.8 °C 1019.2 hPa NNW 7.4 km/h 7.4 km/h 87% 3.56 mm WeatherDisplay:10.37 W/m2 RA
10:40 3.8 °C 1.9 °C 1019.2 hPa NNW 14.5 km/h 14.5 km/h 87% 3.81 mm WeatherDisplay:10.37 W/m2 RA
10:45 4 °C 1.9 °C 1019.2 hPa WNW 12.9 km/h 12.9 km/h 86% 4.06 mm WeatherDisplay:10.37 W/m2 RA
10:50 4.1 °C 1.7 °C 1018.8 hPa North 25.9 km/h 25.9 km/h 84% 4.06 mm WeatherDisplay:10.37 W/m2 RA
10:55 4.2 °C 2.1 °C 1018.8 hPa North 25.7 km/h 25.7 km/h 86% 4.32 mm WeatherDisplay:10.37 W/m2 RA
11:00 4.2 °C 1.8 °C 1018.8 hPa NW 16.7 km/h 16.7 km/h 84% 4.06 mm WeatherDisplay:10.37 W/m2 RA
11:05 4.2 °C 1.9 °C 1018.8 hPa NW 17.7 km/h 17.7 km/h 85% 4.32 mm WeatherDisplay:10.37 W/m2 RA
11:10 4.3 °C 1.9 °C 1018.8 hPa SE 14.8 km/h 14.8 km/h 84% 4.57 mm WeatherDisplay:10.37 W/m2 RA
11:15 4.3 °C 1.7 °C 1018.8 hPa NW 18.5 km/h 18.5 km/h 83% 4.83 mm WeatherDisplay:10.37 W/m2 RA
11:20 4.2 °C 1.6 °C 1018.8 hPa NNE 20.4 km/h 20.4 km/h 83% 4.83 mm WeatherDisplay:10.37 W/m2 RA
11:25 4.2 °C 1.6 °C 1018.8 hPa NNE 27.8 km/h 27.8 km/h 83% 4.83 mm WeatherDisplay:10.37 W/m2 RA
11:30 4.3 °C 1.5 °C 1018.8 hPa NNE 20.4 km/h 20.4 km/h 82% 5.08 mm WeatherDisplay:10.37 W/m2 RA
11:35 4.4 °C 1.4 °C 1018.8 hPa NNE 20.4 km/h 20.4 km/h 81% 5.08 mm WeatherDisplay:10.37 W/m2 RA
11:40 4.3 °C 1.6 °C 1018.8 hPa NNE 25.9 km/h 25.9 km/h 82% 5.08 mm WeatherDisplay:10.37 W/m2 RA
11:45 4.5 °C 1.3 °C 1018.5 hPa North 31.5 km/h 31.5 km/h 80% 4.83 mm WeatherDisplay:10.37 W/m2 RA
11:50 4.4 °C 1.4 °C 1018.8 hPa NNE 20.4 km/h 20.4 km/h 81% 5.08 mm WeatherDisplay:10.37 W/m2 RA
11:55 4.6 °C 1.4 °C 1018.5 hPa NNW 31.5 km/h 31.5 km/h 80% 4.83 mm WeatherDisplay:10.37 W/m2 RA
12:00 4.7 °C 1.2 °C 1017.8 hPa North 18.5 km/h 18.5 km/h 78% 5.08 mm WeatherDisplay:10.37 W/m2 RA
12:05 4.8 °C 1.5 °C 1017.8 hPa NW 24.1 km/h 24.1 km/h 79% 5.08 mm WeatherDisplay:10.37 W/m2 RA
12:10 5 °C 1.7 °C 1017.8 hPa NNE 11.3 km/h 11.3 km/h 79% 5.08 mm WeatherDisplay:10.37 W/m2 RA
12:15 5.1 °C 1.7 °C 1017.8 hPa North 25.9 km/h 25.9 km/h 79% 4.83 mm WeatherDisplay:10.37 W/m2 RA
12:20 5 °C 1.3 °C 1017.8 hPa NNE 33.3 km/h 33.3 km/h 77% 5.08 mm WeatherDisplay:10.37 W/m2 RA
12:25 4.9 °C 1.1 °C 1018.2 hPa NNW 24.1 km/h 24.1 km/h 76% 4.83 mm WeatherDisplay:10.37 W/m2 RA
12:30 4.8 °C 1.1 °C 1018.2 hPa NNE 18.5 km/h 18.5 km/h 77% 4.83 mm WeatherDisplay:10.37 W/m2 RA
12:35 4.7 °C 1 °C 1018.5 hPa North 20.4 km/h 20.4 km/h 77% 4.83 mm WeatherDisplay:10.37 W/m2 RA
12:40 4.5 °C 0.8 °C 1018.2 hPa NNE 20.4 km/h 20.4 km/h 77% 4.57 mm WeatherDisplay:10.37 W/m2 RA
12:45 4.4 °C 1.1 °C 1018.2 hPa NNW 18.5 km/h 18.5 km/h 79% 4.57 mm WeatherDisplay:10.37 W/m2 RA
12:50 4.5 °C 0.8 °C 1018.2 hPa North 25.9 km/h 25.9 km/h 77% 4.57 mm WeatherDisplay:10.37 W/m2 RA
12:55 4.4 °C 0.8 °C 1018.2 hPa NNE 22.2 km/h 22.2 km/h 77% 4.32 mm WeatherDisplay:10.37 W/m2 RA
13:00 4.6 °C 1.2 °C 1018.2 hPa North 24.1 km/h 24.1 km/h 79% 4.06 mm WeatherDisplay:10.37 W/m2 RA
13:05 4.7 °C 1.1 °C 1017.8 hPa North 24.1 km/h 24.1 km/h 77% 4.06 mm WeatherDisplay:10.37 W/m2 RA
13:10 4.7 °C 1 °C 1018.2 hPa NNE 22.2 km/h 22.2 km/h 77% 3.56 mm WeatherDisplay:10.37 W/m2 RA
13:15 4.8 °C 1.1 °C 1017.5 hPa NNW 24.1 km/h 24.1 km/h 77% 3.3 mm WeatherDisplay:10.37 W/m2 RA
13:20 4.8 °C 1.3 °C 1017.8 hPa North 20.4 km/h 20.4 km/h 78% 3.3 mm WeatherDisplay:10.37 W/m2 RA
13:25 4.9 °C 1.2 °C 1017.8 hPa NNE 16.7 km/h 16.7 km/h 77% 2.79 mm WeatherDisplay:10.37 W/m2 RA
13:31 5.1 °C 1.2 °C 1017.5 hPa North 24.1 km/h 24.1 km/h 76% 2.79 mm WeatherDisplay:10.37 W/m2 RA
13:36 5.2 °C 1.9 °C 1017.5 hPa NNW 13 km/h 13 km/h 79% 2.54 mm WeatherDisplay:10.37 W/m2 RA
13:41 5.4 °C 1.6 °C 1017.5 hPa NNE 22.2 km/h 22.2 km/h 76% 2.54 mm WeatherDisplay:10.37 W/m2 RA
13:46 5.6 °C 1.3 °C 1017.5 hPa North 31.5 km/h 31.5 km/h 74% 2.03 mm WeatherDisplay:10.37 W/m2 RA
13:51 5.7 °C 1.1 °C 1017.5 hPa North 24.1 km/h 24.1 km/h 72% 2.03 mm WeatherDisplay:10.37 W/m2 RA
13:56 5.8 °C 1.2 °C 1017.2 hPa North 22.2 km/h 22.2 km/h 72% 1.78 mm WeatherDisplay:10.37 W/m2 RA
14:01 5.9 °C 1.1 °C 1017.2 hPa WNW 18.5 km/h 18.5 km/h 71% 2.03 mm WeatherDisplay:10.37 W/m2 RA
14:06 5.8 °C 0.6 °C 1017.2 hPa NNE 31.5 km/h 31.5 km/h 69% 1.52 mm WeatherDisplay:10.37 W/m2 RA
14:09 5.8 °C 0.8 °C 1017.5 hPa NW 25.9 km/h 25.9 km/h 70% 1.52 mm WeatherDisplay:10.37 W/m2 RA
14:14 5.8 °C 1 °C 1017.5 hPa North 18.5 km/h 18.5 km/h 71% 1.52 mm WeatherDisplay:10.37 W/m2 CLR
14:19 5.9 °C 0.8 °C 1017.2 hPa NNE 20.4 km/h 20.4 km/h 70% 1.27 mm WeatherDisplay:10.37 W/m2 CLR
14:24 5.9 °C 1.1 °C 1017.2 hPa North 19.3 km/h 19.3 km/h 71% 1.02 mm WeatherDisplay:10.37 W/m2 CLR
14:29 6.1 °C 1 °C 1016.8 hPa NNW 20.4 km/h 20.4 km/h 70% 1.02 mm WeatherDisplay:10.37 W/m2 CLR
14:34 5.9 °C 0.7 °C 1016.8 hPa NNW 24.1 km/h 24.1 km/h 69% 0.76 mm WeatherDisplay:10.37 W/m2 CLR
14:35 5.9 °C 0.7 °C 1016.8 hPa North 24.1 km/h 24.1 km/h 69% 0.76 mm WeatherDisplay:10.37 W/m2 CLR
14:40 5.8 °C 0.8 °C 1017.2 hPa North 20.4 km/h 20.4 km/h 70% 0.51 mm WeatherDisplay:10.37 W/m2 CLR
14:45 5.9 °C 0.8 °C 1017.2 hPa North 20.4 km/h 20.4 km/h 70% 0.51 mm WeatherDisplay:10.37 W/m2 CLR
14:50 5.8 °C 0.8 °C 1017.2 hPa North 29.6 km/h 29.6 km/h 70% 0.25 mm WeatherDisplay:10.37 W/m2 CLR
14:55 5.8 °C 0.7 °C 1017.8 hPa North 24.1 km/h 24.1 km/h 70% 0.25 mm WeatherDisplay:10.37 W/m2 CLR
15:00 5.7 °C 0.7 °C 1017.8 hPa North 27.8 km/h 27.8 km/h 70% 0.25 mm WeatherDisplay:10.37 W/m2 CLR
15:05 5.8 °C 0.9 °C 1017.8 hPa North 19.3 km/h 19.3 km/h 71% 0 mm WeatherDisplay:10.37 W/m2 CLR
15:10 5.8 °C 0.9 °C 1017.8 hPa NNW 19.3 km/h 19.3 km/h 71% 0 mm WeatherDisplay:10.37 W/m2 CLR
15:15 5.7 °C 0.7 °C 1017.8 hPa NNE 25.9 km/h 25.9 km/h 70% 0 mm WeatherDisplay:10.37 W/m2 CLR
15:20 5.7 °C 0.6 °C 1017.8 hPa North 25.9 km/h 25.9 km/h 70% 0 mm WeatherDisplay:10.37 W/m2 CLR
15:25 5.7 °C 0.4 °C 1017.8 hPa NNW 29.6 km/h 29.6 km/h 69% 0 mm WeatherDisplay:10.37 W/m2 CLR
15:30 5.7 °C 0.6 °C 1017.8 hPa North 22.2 km/h 22.2 km/h 70% 0 mm WeatherDisplay:10.37 W/m2 CLR
15:35 5.7 °C 0.9 °C 1017.8 hPa NW 18.5 km/h 18.5 km/h 71% 0 mm WeatherDisplay:10.37 W/m2 CLR
15:40 5.7 °C 0.8 °C 1017.8 hPa North 22.2 km/h 22.2 km/h 71% 0 mm WeatherDisplay:10.37 W/m2 CLR
15:45 5.7 °C 0.6 °C 1017.8 hPa NNE 20.9 km/h 20.9 km/h 70% 0 mm WeatherDisplay:10.37 W/m2 CLR
15:50 5.6 °C 0.8 °C 1017.8 hPa North 22.2 km/h 22.2 km/h 71% 0 mm WeatherDisplay:10.37 W/m2 CLR
15:55 5.7 °C 0.8 °C 1017.8 hPa North 16.1 km/h 16.1 km/h 71% 0 mm WeatherDisplay:10.37 W/m2 CLR
16:00 5.7 °C 0.8 °C 1017.8 hPa North 16.7 km/h 16.7 km/h 71% 0 mm WeatherDisplay:10.37 W/m2 CLR
16:05 5.7 °C 0.7 °C 1017.8 hPa North 16.7 km/h 16.7 km/h 70% 0 mm WeatherDisplay:10.37 W/m2 CLR
16:10 5.6 °C 0.8 °C 1017.8 hPa North 18.5 km/h 18.5 km/h 71% 0 mm WeatherDisplay:10.37 W/m2 CLR
16:15 5.6 °C 0.9 °C 1018.2 hPa NNW 14.8 km/h 14.8 km/h 72% 0 mm WeatherDisplay:10.37 W/m2 CLR
16:20 5.7 °C 0.8 °C 1018.2 hPa North 18.5 km/h 18.5 km/h 71% 0 mm WeatherDisplay:10.37 W/m2 CLR
16:25 5.7 °C 0.8 °C 1018.2 hPa North 9.7 km/h 9.7 km/h 71% 0 mm WeatherDisplay:10.37 W/m2 CLR
16:30 5.7 °C 1 °C 1018.2 hPa NNE 11.3 km/h 11.3 km/h 72% 0 mm WeatherDisplay:10.37 W/m2 CLR
16:35 5.7 °C 0.9 °C 1018.5 hPa North 24.1 km/h 24.1 km/h 71% 0 mm WeatherDisplay:10.37 W/m2 CLR
16:40 5.7 °C 0.8 °C 1018.5 hPa North 22.2 km/h 22.2 km/h 71% 0 mm WeatherDisplay:10.37 W/m2 CLR
16:45 5.8 °C 0.9 °C 1018.5 hPa North 22.2 km/h 22.2 km/h 71% 0 mm WeatherDisplay:10.37 W/m2 CLR
16:50 5.8 °C 1 °C 1018.2 hPa NNE 16.7 km/h 16.7 km/h 71% 0 mm WeatherDisplay:10.37 W/m2 CLR
16:55 5.9 °C 1.1 °C 1018.2 hPa NNE 11.1 km/h 11.1 km/h 71% 0 mm WeatherDisplay:10.37 W/m2 CLR
17:00 5.9 °C 1.1 °C 1018.2 hPa North 14.8 km/h 14.8 km/h 71% 0 mm WeatherDisplay:10.37 W/m2 CLR
17:01 5.9 °C 1.1 °C 1018.2 hPa North 14.8 km/h 14.8 km/h 71% 0 mm WeatherDisplay:10.37 W/m2 CLR
17:06 5.9 °C 1.1 °C 1018.5 hPa NNW 12.9 km/h 12.9 km/h 71% 0 mm WeatherDisplay:10.37 W/m2 CLR
17:11 5.8 °C 1 °C 1018.8 hPa NW 11.1 km/h 11.1 km/h 71% 0 mm WeatherDisplay:10.37 W/m2 CLR
17:16 5.8 °C 0.9 °C 1018.8 hPa NW 16.7 km/h 16.7 km/h 71% 0 mm WeatherDisplay:10.37 W/m2 CLR
17:21 5.7 °C 0.9 °C 1018.8 hPa NNW 14.8 km/h 14.8 km/h 71% 0 mm WeatherDisplay:10.37 W/m2 CLR
17:26 5.7 °C 0.9 °C 1018.8 hPa NNE 14.8 km/h 14.8 km/h 71% 0 mm WeatherDisplay:10.37 W/m2 CLR
17:31 5.7 °C 0.9 °C 1018.8 hPa NW 16.7 km/h 16.7 km/h 71% 0 mm WeatherDisplay:10.37 W/m2 CLR
17:36 5.7 °C 0.8 °C 1018.8 hPa North 18.5 km/h 18.5 km/h 71% 0 mm WeatherDisplay:10.37 W/m2 CLR
17:41 5.7 °C 0.8 °C 1018.8 hPa North 17.7 km/h 17.7 km/h 71% 0 mm WeatherDisplay:10.37 W/m2 CLR
17:46 5.6 °C 0.9 °C 1018.8 hPa North 7.4 km/h 8.4 km/h 72% 0 mm WeatherDisplay:10.37 W/m2 CLR
17:51 5.7 °C 0.8 °C 1018.8 hPa North 7.4 km/h 7.4 km/h 71% 0 mm WeatherDisplay:10.37 W/m2 CLR
17:56 5.7 °C 0.8 °C 1018.8 hPa North 9.3 km/h 9.3 km/h 71% 0 mm WeatherDisplay:10.37 W/m2 CLR
18:01 5.7 °C 0.6 °C 1018.8 hPa NNW 18.5 km/h 18.5 km/h 70% 0 mm WeatherDisplay:10.37 W/m2 CLR
18:06 5.6 °C 0.8 °C 1018.8 hPa North 14.8 km/h 14.8 km/h 71% 0 mm WeatherDisplay:10.37 W/m2 CLR
18:11 5.7 °C 1 °C 1019.2 hPa North 3.7 km/h 3.7 km/h 72% 0 mm WeatherDisplay:10.37 W/m2 CLR
18:16 5.7 °C 0.6 °C 1019.2 hPa North 13 km/h 13 km/h 70% 0 mm WeatherDisplay:10.37 W/m2 CLR
18:21 5.7 °C 1 °C 1018.8 hPa NNE 9.7 km/h 9.7 km/h 72% 0 mm WeatherDisplay:10.37 W/m2 CLR
18:26 5.6 °C 0.8 °C 1018.8 hPa NNW 18.5 km/h 18.5 km/h 71% 0 mm WeatherDisplay:10.37 W/m2 CLR
18:28 5.6 °C 0.7 °C 1018.8 hPa NNE 11.1 km/h 11.1 km/h 71% 0 mm WeatherDisplay:10.37 W/m2 CLR
18:33 5.5 °C 0.7 °C 1018.8 hPa North 7.4 km/h 7.4 km/h 71% 0 mm WeatherDisplay:10.37 W/m2 CLR
18:38 5.5 °C 0.7 °C 1018.8 hPa NNW 9.3 km/h 9.3 km/h 71% 0 mm WeatherDisplay:10.37 W/m2 CLR
18:43 5.5 °C 0.8 °C 1018.8 hPa NNE 7.4 km/h 7.4 km/h 72% 0 mm WeatherDisplay:10.37 W/m2 CLR
18:48 5.5 °C 1.1 °C 1018.8 hPa NNW 4.8 km/h 4.8 km/h 73% 0 mm WeatherDisplay:10.37 W/m2 CLR
18:53 5.4 °C 0.8 °C 1019.2 hPa North 5.6 km/h 5.6 km/h 72% 0 mm WeatherDisplay:10.37 W/m2 CLR
18:58 5.5 °C 1.1 °C 1019.2 hPa NNW 5.6 km/h 5.6 km/h 73% 0 mm WeatherDisplay:10.37 W/m2 CLR
19:03 5.5 °C 0.8 °C 1019.2 hPa NNE 9.3 km/h 9.3 km/h 72% 0 mm WeatherDisplay:10.37 W/m2 CLR
19:08 5.6 °C 1.1 °C 1019.2 hPa NW 7.4 km/h 7.4 km/h 73% 0 mm WeatherDisplay:10.37 W/m2 CLR
19:13 5.6 °C 0.7 °C 1019.2 hPa North 18.5 km/h 18.5 km/h 71% 0 mm WeatherDisplay:10.37 W/m2 CLR
19:18 5.5 °C 0.8 °C 1019.2 hPa NNW 5.6 km/h 5.6 km/h 72% 0 mm WeatherDisplay:10.37 W/m2 CLR
19:23 5.5 °C 0.8 °C 1019.2 hPa NNE 11.1 km/h 11.1 km/h 72% 0 mm WeatherDisplay:10.37 W/m2 CLR
19:28 5.4 °C 0.6 °C 1019.2 hPa North 18.5 km/h 18.5 km/h 71% 0 mm WeatherDisplay:10.37 W/m2 CLR
19:33 5.4 °C 0.7 °C 1019.2 hPa North 7.4 km/h 7.4 km/h 72% 0 mm WeatherDisplay:10.37 W/m2 CLR
19:38 5.4 °C 0.7 °C 1019.2 hPa NNW 9.3 km/h 9.3 km/h 72% 0 mm WeatherDisplay:10.37 W/m2 CLR
19:43 5.3 °C 0.6 °C 1019.2 hPa North 20.4 km/h 20.4 km/h 72% 0 mm WeatherDisplay:10.37 W/m2 CLR
19:48 5.2 °C 0.6 °C 1019.2 hPa NNE 11.1 km/h 11.1 km/h 72% 0 mm WeatherDisplay:10.37 W/m2 CLR
19:53 5.2 °C 0.7 °C 1019.2 hPa North 18.5 km/h 18.5 km/h 73% 0 mm WeatherDisplay:10.37 W/m2 CLR
19:58 5.1 °C 0.7 °C 1019.5 hPa North 14.8 km/h 14.8 km/h 73% 0 mm WeatherDisplay:10.37 W/m2 CLR
20:03 5 °C 0.6 °C 1019.5 hPa North 7.4 km/h 7.4 km/h 73% 0 mm WeatherDisplay:10.37 W/m2 CLR
20:08 4.9 °C 0.4 °C 1019.5 hPa North 22.2 km/h 22.2 km/h 73% 0 mm WeatherDisplay:10.37 W/m2 CLR
20:13 4.8 °C 0.6 °C 1019.5 hPa North 8 km/h 8 km/h 74% 0 mm WeatherDisplay:10.37 W/m2 CLR
20:18 4.7 °C 0.7 °C 1019.5 hPa North 14.5 km/h 14.5 km/h 75% 0 mm WeatherDisplay:10.37 W/m2 CLR
20:23 4.7 °C 0.7 °C 1019.5 hPa NNW 3.2 km/h 3.2 km/h 75% 0 mm WeatherDisplay:10.37 W/m2 CLR
20:28 4.7 °C 0.8 °C 1019.5 hPa North 1.9 km/h   76% 0 mm WeatherDisplay:10.37 W/m2 CLR
20:33 4.6 °C 0.6 °C 1019.5 hPa NNW 5.6 km/h 5.6 km/h 75% 0 mm WeatherDisplay:10.37 W/m2 CLR
20:38 4.6 °C 0.7 °C 1019.5 hPa NNW 5.6 km/h 5.6 km/h 76% 0 mm WeatherDisplay:10.37 W/m2 CLR
20:43 4.6 °C 0.5 °C 1019.5 hPa NNW 5.6 km/h 5.6 km/h 75% 0 mm WeatherDisplay:10.37 W/m2 CLR
20:48 4.6 °C 0.7 °C 1019.5 hPa Calm     76% 0 mm WeatherDisplay:10.37 W/m2 CLR
20:53 4.5 °C 0.8 °C 1019.5 hPa North 3.7 km/h 3.7 km/h 77% 0 mm WeatherDisplay:10.37 W/m2 CLR
20:58 4.5 °C 0.4 °C 1019.9 hPa North 7.4 km/h 7.4 km/h 75% 0 mm WeatherDisplay:10.37 W/m2 CLR
21:03 4.6 °C 0.5 °C 1019.9 hPa North 3.7 km/h 3.7 km/h 75% 0 mm WeatherDisplay:10.37 W/m2 CLR
21:08 4.6 °C 0.3 °C 1019.9 hPa North 7.4 km/h 7.4 km/h 74% 0 mm WeatherDisplay:10.37 W/m2 CLR
21:13 4.6 °C 0.3 °C 1019.9 hPa North 5.6 km/h 5.6 km/h 74% 0 mm WeatherDisplay:10.37 W/m2 CLR
21:18 4.6 °C 0.5 °C 1019.9 hPa North 5.6 km/h 5.6 km/h 75% 0 mm WeatherDisplay:10.37 W/m2 CLR
21:23 4.6 °C 0.5 °C 1019.9 hPa NNE 5.6 km/h   75% 0 mm WeatherDisplay:10.37 W/m2 CLR
21:28 4.6 °C 0.5 °C 1019.9 hPa NNE 3.7 km/h 3.7 km/h 75% 0 mm WeatherDisplay:10.37 W/m2 CLR
21:33 4.6 °C 0.7 °C 1019.9 hPa NNE 1.6 km/h 1.6 km/h 76% 0 mm WeatherDisplay:10.37 W/m2 CLR
21:38 4.6 °C 0.7 °C 1020.2 hPa Calm     76% 0 mm WeatherDisplay:10.37 W/m2 CLR
21:43 4.6 °C 0.5 °C 1020.2 hPa North 3.7 km/h 3.7 km/h 75% 0 mm WeatherDisplay:10.37 W/m2 CLR
21:48 4.6 °C 0.3 °C 1020.2 hPa NNE 9.3 km/h 9.3 km/h 74% 0 mm WeatherDisplay:10.37 W/m2 CLR
21:53 4.6 °C 0.3 °C 1020.2 hPa North 5.6 km/h 5.6 km/h 74% 0 mm WeatherDisplay:10.37 W/m2 CLR
21:58 4.6 °C 0.3 °C 1020.2 hPa North 7.4 km/h 7.4 km/h 74% 0 mm WeatherDisplay:10.37 W/m2 CLR
22:03 4.6 °C 0.3 °C 1019.2 hPa North 7.4 km/h 7.4 km/h 74% 0 mm WeatherDisplay:10.37 W/m2 CLR
22:08 4.6 °C 0.5 °C 1019.5 hPa NNW 5.6 km/h 5.6 km/h 75% 0 mm WeatherDisplay:10.37 W/m2 CLR
22:13 4.6 °C 0.3 °C 1019.2 hPa North 13 km/h 13 km/h 74% 0 mm WeatherDisplay:10.37 W/m2 CLR
22:18 4.6 °C 0.4 °C 1019.2 hPa North 9.3 km/h 9.3 km/h 74% 0 mm WeatherDisplay:10.37 W/m2 CLR
22:23 4.6 °C 0.3 °C 1019.2 hPa NNW 5.6 km/h 5.6 km/h 74% 0 mm WeatherDisplay:10.37 W/m2 CLR
22:28 4.6 °C 0.3 °C 1019.2 hPa NNW 7.4 km/h 7.4 km/h 74% 0 mm WeatherDisplay:10.37 W/m2 CLR
22:33 4.6 °C 0.5 °C 1019.2 hPa North 5.6 km/h 5.6 km/h 75% 0 mm WeatherDisplay:10.37 W/m2 CLR
22:38 4.6 °C 0.7 °C 1019.2 hPa Calm     76% 0 mm WeatherDisplay:10.37 W/m2 CLR
22:43 4.6 °C 0.9 °C 1019.2 hPa Calm     77% 0 mm WeatherDisplay:10.37 W/m2 CLR
22:48 4.5 °C 0.8 °C 1019.2 hPa Calm     77% 0 mm WeatherDisplay:10.37 W/m2 CLR
22:53 4.4 °C 0.8 °C 1019.2 hPa Calm     77% 0 mm WeatherDisplay:10.37 W/m2 CLR
22:58 4.4 °C 0.7 °C 1019.2 hPa North 5.6 km/h 5.6 km/h 77% 0 mm WeatherDisplay:10.37 W/m2 CLR
23:03 4.3 °C 0.4 °C 1019.2 hPa North 5.6 km/h 5.6 km/h 76% 0 mm WeatherDisplay:10.37 W/m2 CLR
23:08 4.3 °C 0.7 °C 1018.8 hPa Calm   0.3 km/h 77% 0 mm WeatherDisplay:10.37 W/m2 CLR
23:13 4.3 °C 0.7 °C 1018.8 hPa Calm     77% 0 mm WeatherDisplay:10.37 W/m2 CLR
23:18 4.3 °C 0.6 °C 1018.8 hPa North 1.9 km/h   77% 0 mm WeatherDisplay:10.37 W/m2 CLR
23:23 4.3 °C 0.6 °C 1018.8 hPa Calm     77% 0 mm WeatherDisplay:10.37 W/m2 CLR
23:28 4.3 °C 0.6 °C 1018.8 hPa Calm     77% 0 mm WeatherDisplay:10.37 W/m2 CLR
23:33 4.3 °C 0.8 °C 1018.5 hPa Calm     78% 0 mm WeatherDisplay:10.37 W/m2 CLR
23:38 4.3 °C 0.8 °C 1018.5 hPa Calm     78% 0 mm WeatherDisplay:10.37 W/m2 CLR
23:43 4.2 °C 0.7 °C 1018.5 hPa Calm     78% 0 mm WeatherDisplay:10.37 W/m2 CLR
23:48 4.2 °C 0.7 °C 1018.5 hPa Calm     78% 0 mm WeatherDisplay:10.37 W/m2 CLR
23:53 4.2 °C 0.7 °C 1018.5 hPa Calm     78% 0 mm WeatherDisplay:10.37 W/m2 CLR
23:58 4.1 °C 0.8 °C 1018.5 hPa Calm     79% 0 mm WeatherDisplay:10.37 W/m2 CLR
Windsor Co Weather
Compliments of Weather Underground - 3 mb